Time;durP1;ratioP1;P1;durP2;ratioP2;P2;SDS_P1;SDS_P2;PMS_P1;PMS_P2;Temp;Humidity;BMP_temperature;BMP_pressure;BME280_temperature;BME280_humidity;BME280_pressure;Samples;Min_cycle;Max_cycle;Signal;HPM_P1;HPM_P2
2022/12/30 15:28:40;;;;;;;4.83;4.43;;;8.90;99.90;;;;;;5091786;27;20564;-67
2022/12/30 15:31:18;;;;;;;6.30;5.70;;;8.90;99.90;;;;;;5091240;28;20519;-67
2022/12/30 15:33:55;;;;;;;5.90;5.23;;;9.30;99.90;;;;;;5091239;28;20524;-66
2022/12/30 15:36:22;;;;;;;4.23;3.80;;;9.50;99.90;;;;;;5091120;28;20449;-65
2022/12/30 15:38:50;;;;;;;6.73;4.60;;;9.70;99.90;;;;;;5091173;28;20456;-66
2022/12/30 15:41:19;;;;;;;4.43;3.97;;;9.90;99.90;;;;;;5090997;28;20469;-66
2022/12/30 15:43:47;;;;;;;4.50;4.10;;;10.00;99.90;;;;;;5091007;28;20442;-65
2022/12/30 15:46:24;;;;;;;4.20;3.80;;;10.00;99.90;;;;;;5090558;28;20940;-67
2022/12/30 15:49:10;;;;;;;3.30;3.10;;;10.00;99.90;;;;;;5090792;28;21034;-66
2022/12/30 15:51:39;;;;;;;3.10;2.90;;;10.00;99.90;;;;;;5090897;28;20473;-67
2022/12/30 15:54:08;;;;;;;3.60;3.30;;;10.00;99.90;;;;;;5093161;28;20453;-67
2022/12/30 15:56:36;;;;;;;3.80;3.50;;;10.00;99.90;;;;;;5093888;28;20936;-66
2022/12/30 15:59:08;;;;;;;4.90;3.30;;;10.00;99.90;;;;;;5090794;28;20498;-66
2022/12/30 16:01:37;;;;;;;3.97;3.50;;;10.00;99.90;;;;;;5090604;28;20473;-68
2022/12/30 16:04:10;;;;;;;3.20;2.90;;;10.10;99.90;;;;;;5090654;28;20449;-66
2022/12/30 16:06:39;;;;;;;3.00;2.80;;;10.10;99.90;;;;;;5090417;28;20433;-66
2022/12/30 16:09:28;;;;;;;2.60;2.50;;;10.10;99.90;;;;;;5090543;28;20445;-66
2022/12/30 16:11:55;;;;;;;2.40;2.30;;;10.10;99.90;;;;;;5090491;28;20477;-66
2022/12/30 16:14:30;;;;;;;2.63;2.43;;;10.10;99.90;;;;;;5090361;28;20483;-66
2022/12/30 16:17:12;;;;;;;2.20;2.10;;;10.10;99.90;;;;;;5090351;28;20894;-66
2022/12/30 16:19:43;;;;;;;1.93;1.83;;;10.20;99.90;;;;;;5090344;28;20437;-68
2022/12/30 16:22:24;;;;;;;5.07;2.60;;;10.20;99.90;;;;;;5090279;28;20473;-68
2022/12/30 16:24:57;;;;;;;1.77;1.67;;;10.20;99.90;;;;;;5090275;28;20430;-68
2022/12/30 16:27:24;;;;;;;2.03;1.93;;;10.20;99.90;;;;;;5089857;28;20886;-67
2022/12/30 16:29:53;;;;;;;1.70;1.60;;;10.20;99.90;;;;;;5090069;28;20499;-67
2022/12/30 16:32:22;;;;;;;1.53;1.50;;;10.20;99.90;;;;;;5090804;28;20473;-67
2022/12/30 16:34:49;;;;;;;1.93;1.83;;;10.20;99.90;;;;;;5090153;28;20453;-68
2022/12/30 16:37:23;;;;;;;1.50;1.43;;;10.30;99.90;;;;;;5090047;28;20514;-67
2022/12/30 16:39:50;;;;;;;1.77;1.67;;;10.30;99.90;;;;;;5077417;28;20431;-66
2022/12/30 16:42:17;;;;;;;1.90;1.80;;;10.40;99.90;;;;;;5076364;28;20560;-67
2022/12/30 16:44:44;;;;;;;2.13;2.00;;;10.50;99.90;;;;;;5076156;28;20454;-66
2022/12/30 16:47:12;;;;;;;1.90;1.80;;;10.50;99.90;;;;;;5076722;28;20462;-66
2022/12/30 16:49:38;;;;;;;1.77;1.67;;;10.60;99.90;;;;;;5076719;28;20450;-66
2022/12/30 16:52:05;;;;;;;1.83;1.73;;;10.60;99.90;;;;;;5076553;28;20524;-67
2022/12/30 16:54:32;;;;;;;2.10;2.00;;;10.70;99.90;;;;;;5076124;28;20858;-66
2022/12/30 16:56:59;;;;;;;1.77;1.67;;;10.70;99.90;;;;;;5077370;28;20442;-71
2022/12/30 16:59:26;;;;;;;1.90;1.80;;;10.70;99.90;;;;;;5077808;28;20825;-66
2022/12/30 17:01:56;;;;;;;1.70;1.60;;;10.80;99.90;;;;;;5077429;28;20552;-66
2022/12/30 17:04:24;;;;;;;1.60;1.60;;;10.90;99.90;;;;;;5076624;28;20454;-66
2022/12/30 17:06:51;;;;;;;1.57;1.57;;;10.90;99.90;;;;;;5076094;28;20488;-66
2022/12/30 17:10:52;;;;;;;1.40;1.30;;;10.90;99.90;;;;;;5077178;28;20544;-66
2022/12/30 17:12:06;;;;;;;1.90;1.80;;;11.00;99.90;;;;;;5075908;28;21066;-66
2022/12/30 17:14:33;;;;;;;1.80;1.70;;;11.00;99.90;;;;;;5075986;28;20458;-66
2022/12/30 17:17:00;;;;;;;1.60;1.50;;;11.10;99.90;;;;;;5076165;28;20443;-66
2022/12/30 17:19:33;;;;;;;2.80;2.17;;;11.10;99.90;;;;;;5075857;28;20454;-66
2022/12/30 17:22:00;;;;;;;1.57;1.43;;;11.10;99.90;;;;;;5075738;28;20470;-66
2022/12/30 17:24:26;;;;;;;1.70;1.60;;;11.10;99.90;;;;;;5076351;28;20491;-66
2022/12/30 17:26:53;;;;;;;1.33;1.33;;;11.10;99.90;;;;;;5075430;28;20809;-66
2022/12/30 17:29:20;;;;;;;1.60;1.33;;;11.20;99.90;;;;;;5075384;28;20968;-66
2022/12/30 17:31:46;;;;;;;1.37;1.27;;;11.30;99.90;;;;;;5075572;28;20476;-66
2022/12/30 17:34:16;;;;;;;2.10;2.00;;;11.30;99.90;;;;;;5075572;28;20477;-66
2022/12/30 17:36:44;;;;;;;1.50;1.50;;;11.30;99.90;;;;;;5075701;28;20465;-66
2022/12/30 17:39:11;;;;;;;1.20;1.20;;;11.40;99.90;;;;;;5075407;28;20453;-66
2022/12/30 17:41:38;;;;;;;1.30;1.30;;;11.40;99.90;;;;;;5075469;28;20470;-66
2022/12/30 17:44:05;;;;;;;1.73;1.20;;;11.50;99.90;;;;;;5075530;28;20519;-67
2022/12/30 17:46:33;;;;;;;1.80;1.70;;;11.50;99.90;;;;;;5075425;28;20503;-66
2022/12/30 17:48:59;;;;;;;1.57;1.47;;;11.60;99.90;;;;;;5075170;28;20513;-66
2022/12/30 17:51:27;;;;;;;1.27;1.27;;;11.60;99.90;;;;;;5074306;28;20474;-66
2022/12/30 17:53:56;;;;;;;0.97;0.97;;;11.70;99.90;;;;;;5075202;28;20525;-66
2022/12/30 17:56:24;;;;;;;1.20;1.20;;;11.70;99.90;;;;;;5074858;28;20957;-66
2022/12/30 17:58:51;;;;;;;1.20;1.20;;;11.70;99.90;;;;;;5075449;28;20441;-67
2022/12/30 18:01:18;;;;;;;1.70;1.70;;;11.80;99.90;;;;;;5074966;28;20470;-66
2022/12/30 18:03:45;;;;;;;2.87;1.30;;;11.70;99.90;;;;;;5075111;28;20481;-66
2022/12/30 18:06:14;;;;;;;1.83;1.73;;;11.70;99.90;;;;;;5075108;28;20454;-66
2022/12/30 18:08:41;;;;;;;1.23;1.23;;;11.80;99.90;;;;;;5075026;28;20470;-69
2022/12/30 18:11:13;;;;;;;1.47;1.33;;;11.80;99.90;;;;;;5075116;28;20510;-66
2022/12/30 18:13:40;;;;;;;1.80;1.70;;;11.90;99.90;;;;;;5075175;28;20487;-66
2022/12/30 18:16:10;;;;;;;1.23;1.07;;;11.90;99.90;;;;;;5075284;28;20850;-66
2022/12/30 18:18:37;;;;;;;1.10;1.10;;;11.90;99.90;;;;;;5074965;28;20434;-67
2022/12/30 18:21:07;;;;;;;1.60;1.60;;;11.90;99.90;;;;;;5075429;28;20474;-67
2022/12/30 18:23:34;;;;;;;2.07;1.27;;;11.90;99.90;;;;;;5074970;28;20439;-68
2022/12/30 18:26:05;;;;;;;1.40;1.33;;;11.90;99.90;;;;;;5074687;28;20450;-68
2022/12/30 18:28:34;;;;;;;4.90;1.60;;;12.00;99.90;;;;;;5074240;28;20524;-69
2022/12/30 18:31:09;;;;;;;1.30;1.30;;;12.00;99.90;;;;;;5075008;28;20470;-68
2022/12/30 18:33:35;;;;;;;1.53;1.33;;;12.10;99.90;;;;;;5074591;28;20956;-69
2022/12/30 18:36:02;;;;;;;1.23;1.13;;;12.10;99.90;;;;;;5074445;28;20814;-69
2022/12/30 18:38:29;;;;;;;1.93;0.93;;;12.10;99.90;;;;;;5074953;28;20560;-69
2022/12/30 18:40:55;;;;;;;2.30;1.20;;;12.20;99.90;;;;;;5074953;28;20883;-69
2022/12/30 18:43:22;;;;;;;1.23;1.10;;;12.20;99.90;;;;;;5074964;28;20963;-69
2022/12/30 18:45:50;;;;;;;1.20;1.20;;;12.20;99.90;;;;;;5075009;28;20456;-69
2022/12/30 18:48:17;;;;;;;1.30;1.30;;;12.30;99.90;;;;;;5074679;28;20473;-70
2022/12/30 18:50:44;;;;;;;1.30;1.20;;;12.30;99.90;;;;;;5074237;28;21019;-70
2022/12/30 18:53:10;;;;;;;1.20;1.20;;;12.30;99.90;;;;;;5075170;28;20504;-70
2022/12/30 18:55:37;;;;;;;1.40;1.27;;;12.30;99.90;;;;;;5074936;28;20454;-70
2022/12/30 18:58:04;;;;;;;1.40;1.40;;;12.40;99.90;;;;;;5075278;28;20449;-70
2022/12/30 19:00:30;;;;;;;1.73;1.63;;;12.40;99.90;;;;;;5074629;28;20466;-70
2022/12/30 19:02:58;;;;;;;1.17;1.10;;;12.30;99.90;;;;;;5074571;28;20909;-69
2022/12/30 19:05:25;;;;;;;0.93;0.93;;;12.30;99.90;;;;;;5074726;28;20461;-69
2022/12/30 19:07:52;;;;;;;1.80;1.00;;;12.20;99.90;;;;;;5075047;28;20470;-68
2022/12/30 19:10:18;;;;;;;0.90;0.90;;;12.20;99.90;;;;;;5074878;28;20507;-68
2022/12/30 19:12:45;;;;;;;1.40;1.30;;;12.20;99.90;;;;;;5074421;28;20439;-69
2022/12/30 19:15:12;;;;;;;1.00;1.00;;;12.20;99.90;;;;;;5074453;28;20506;-69
2022/12/30 19:17:38;;;;;;;1.23;1.23;;;12.20;99.90;;;;;;5074144;28;20813;-68
2022/12/30 19:20:08;;;;;;;1.03;1.03;;;12.20;99.90;;;;;;5073978;28;20457;-69
2022/12/30 19:22:34;;;;;;;1.57;1.27;;;12.30;99.90;;;;;;5074031;28;20454;-69
2022/12/30 19:25:01;;;;;;;0.93;0.93;;;12.30;99.90;;;;;;5073901;28;20461;-69
2022/12/30 19:27:28;;;;;;;1.43;1.20;;;12.30;99.90;;;;;;5073716;28;20466;-68
2022/12/30 19:29:54;;;;;;;1.10;1.00;;;12.30;99.90;;;;;;5074670;28;20532;-69
2022/12/30 19:32:21;;;;;;;1.20;1.20;;;12.20;99.90;;;;;;5074380;28;20470;-69
2022/12/30 19:34:48;;;;;;;1.40;1.40;;;12.20;99.90;;;;;;5074100;28;20511;-67
2022/12/30 19:37:16;;;;;;;2.03;1.90;;;12.30;99.90;;;;;;5074247;28;20440;-68
2022/12/30 19:39:42;;;;;;;1.13;1.13;;;12.30;99.90;;;;;;5074196;28;20469;-69
2022/12/30 19:42:09;;;;;;;1.10;1.00;;;12.40;99.90;;;;;;5073945;28;20878;-68
2022/12/30 19:44:36;;;;;;;1.00;1.00;;;12.30;99.90;;;;;;5075036;28;20863;-68
2022/12/30 19:47:03;;;;;;;2.33;1.10;;;12.40;99.90;;;;;;5073892;28;20442;-62
2022/12/30 19:49:29;;;;;;;1.00;1.00;;;12.40;99.90;;;;;;5073764;28;20983;-62
2022/12/30 19:51:56;;;;;;;1.17;1.07;;;12.30;99.90;;;;;;5073836;28;20872;-61
2022/12/30 19:54:24;;;;;;;1.10;1.10;;;12.30;99.90;;;;;;5073592;28;20956;-62
2022/12/30 19:56:51;;;;;;;1.43;1.40;;;12.40;99.90;;;;;;5074361;28;20438;-61
2022/12/30 19:59:17;;;;;;;0.90;0.90;;;12.40;99.90;;;;;;5073936;28;20431;-61
2022/12/30 20:01:44;;;;;;;3.13;1.27;;;12.40;99.90;;;;;;5073979;28;20474;-61
2022/12/30 20:04:13;;;;;;;1.27;1.27;;;12.40;99.90;;;;;;5073965;28;20499;-61
2022/12/30 20:06:42;;;;;;;1.10;1.10;;;12.50;99.90;;;;;;5075241;28;20449;-61
2022/12/30 20:09:09;;;;;;;1.07;1.07;;;12.50;99.90;;;;;;5075596;28;21094;-62
2022/12/30 20:11:38;;;;;;;3.40;1.07;;;12.50;99.90;;;;;;5074761;28;20478;-61
2022/12/30 20:14:06;;;;;;;1.30;1.30;;;12.50;99.90;;;;;;5076167;28;20853;-60
2022/12/30 20:16:37;;;;;;;0.90;0.90;;;12.60;99.90;;;;;;5077848;28;20434;-61
2022/12/30 20:19:08;;;;;;;1.10;1.10;;;12.70;99.90;;;;;;5077527;28;20513;-60
2022/12/30 20:21:36;;;;;;;1.17;1.17;;;12.70;99.90;;;;;;5077212;28;20507;-60
2022/12/30 20:24:04;;;;;;;1.20;1.10;;;12.70;99.90;;;;;;5077257;28;20525;-60
2022/12/30 20:26:33;;;;;;;1.10;1.10;;;12.70;99.90;;;;;;5077142;28;20465;-61
2022/12/30 20:29:02;;;;;;;1.30;1.20;;;12.80;99.90;;;;;;5077169;28;20563;-61
2022/12/30 20:31:31;;;;;;;1.13;1.13;;;12.80;99.90;;;;;;5077034;28;20470;-60
2022/12/30 20:33:58;;;;;;;0.90;0.90;;;12.80;99.90;;;;;;5082090;28;20450;-60
2022/12/30 20:36:25;;;;;;;1.40;1.07;;;12.90;99.90;;;;;;5083914;28;20458;-60
2022/12/30 20:38:52;;;;;;;1.23;1.23;;;12.90;99.90;;;;;;5083796;28;20805;-60
2022/12/30 20:41:19;;;;;;;1.40;1.30;;;12.90;99.90;;;;;;5077863;28;20535;-61
2022/12/30 20:43:46;;;;;;;1.00;1.00;;;12.90;99.90;;;;;;5077221;28;20461;-61
2022/12/30 20:46:15;;;;;;;2.07;1.67;;;12.80;99.90;;;;;;5076993;28;20444;-61
2022/12/30 20:48:43;;;;;;;1.47;1.07;;;12.90;99.90;;;;;;5076893;28;20485;-61
2022/12/30 20:51:12;;;;;;;16.80;15.00;;;12.90;99.90;;;;;;5076858;28;20466;-61
2022/12/30 20:53:39;;;;;;;3.23;2.90;;;12.90;99.90;;;;;;5076553;28;20523;-60
2022/12/30 20:56:07;;;;;;;1.40;1.30;;;12.90;99.90;;;;;;5076291;28;20817;-60
2022/12/30 20:58:34;;;;;;;1.43;1.33;;;12.90;99.90;;;;;;5076213;28;20461;-60
2022/12/30 21:01:06;;;;;;;1.63;1.53;;;12.90;99.90;;;;;;5076254;28;20478;-62
2022/12/30 21:03:34;;;;;;;2.20;2.10;;;12.90;99.90;;;;;;5076202;28;20462;-61
2022/12/30 21:06:01;;;;;;;3.10;2.00;;;12.90;99.90;;;;;;5076283;28;20465;-61
2022/12/30 21:08:28;;;;;;;1.60;1.50;;;12.90;99.90;;;;;;5076270;28;20825;-61
2022/12/30 21:10:59;;;;;;;1.90;1.80;;;12.90;99.90;;;;;;5076237;28;20477;-60
2022/12/30 21:13:27;;;;;;;1.23;1.23;;;12.90;99.90;;;;;;5076980;28;20449;-61
2022/12/30 21:15:54;;;;;;;3.57;1.30;;;12.90;99.90;;;;;;5077301;28;20470;-61
2022/12/30 21:18:21;;;;;;;2.17;2.07;;;12.90;99.90;;;;;;5076888;28;20439;-61
2022/12/30 21:20:49;;;;;;;1.90;1.43;;;13.00;99.90;;;;;;5077245;28;20936;-60
2022/12/30 21:23:17;;;;;;;1.00;1.00;;;12.90;99.90;;;;;;5082880;28;20439;-64
2022/12/30 21:25:44;;;;;;;1.90;1.80;;;12.90;99.90;;;;;;5084402;28;20880;-62
2022/12/30 21:28:11;;;;;;;1.10;1.10;;;12.90;99.90;;;;;;5084452;28;20462;-62
2022/12/30 21:30:40;;;;;;;1.57;1.47;;;12.90;99.90;;;;;;5084850;28;20547;-62
2022/12/30 21:33:07;;;;;;;1.30;1.30;;;12.90;99.90;;;;;;5084387;28;20461;-62
2022/12/30 21:35:37;;;;;;;1.90;1.43;;;12.90;99.90;;;;;;5084591;28;20473;-63
2022/12/30 22:03:03;;;;;;;1.10;1.10;;;12.90;99.90;;;;;;5081762;28;20501;-63
2022/12/30 22:05:32;;;;;;;1.87;1.77;;;13.00;99.90;;;;;;5082821;28;20901;-63
2022/12/30 22:08:00;;;;;;;1.47;1.40;;;13.00;99.90;;;;;;5082369;28;20454;-63
2022/12/30 22:10:31;;;;;;;1.57;1.47;;;13.00;99.90;;;;;;5083183;28;20500;-62
2022/12/30 22:13:00;;;;;;;2.40;2.13;;;13.10;99.90;;;;;;5083359;28;20480;-63
2022/12/30 22:15:27;;;;;;;1.80;1.70;;;13.10;99.90;;;;;;5082918;28;20442;-66
2022/12/30 22:17:54;;;;;;;3.03;1.77;;;13.10;99.90;;;;;;5081255;28;20459;-63
2022/12/30 22:20:21;;;;;;;1.20;1.20;;;13.10;99.90;;;;;;5081409;28;20807;-63
2022/12/30 22:22:50;;;;;;;1.73;1.73;;;13.10;99.90;;;;;;5082865;28;20447;-63
2022/12/30 22:25:18;;;;;;;1.60;1.50;;;13.00;99.90;;;;;;5081403;28;20438;-63
2022/12/30 22:27:47;;;;;;;1.70;1.60;;;13.10;99.90;;;;;;5082736;28;20488;-63
2022/12/30 22:30:15;;;;;;;1.50;1.40;;;13.10;99.90;;;;;;5082623;28;20478;-63
2022/12/30 22:32:44;;;;;;;1.90;1.80;;;13.20;99.90;;;;;;5083309;28;20454;-63
2022/12/30 22:35:11;;;;;;;1.60;1.60;;;13.30;99.90;;;;;;5082951;28;20482;-63
2022/12/30 22:37:38;;;;;;;1.43;1.33;;;13.30;99.90;;;;;;5083288;28;20453;-63
2022/12/30 22:40:09;;;;;;;1.20;1.20;;;13.40;99.90;;;;;;5083273;28;20493;-61
2022/12/30 22:42:36;;;;;;;1.47;1.40;;;13.40;99.90;;;;;;5083667;28;20449;-63
2022/12/30 22:45:06;;;;;;;1.50;1.40;;;13.50;99.90;;;;;;5083355;28;20953;-63
2022/12/30 22:47:33;;;;;;;1.60;1.50;;;13.50;99.90;;;;;;5083632;28;20529;-62
2022/12/30 22:50:00;;;;;;;1.50;1.50;;;13.50;99.90;;;;;;5079693;28;20478;-61
2022/12/30 22:52:27;;;;;;;1.80;1.33;;;13.50;99.90;;;;;;5074354;28;20575;-60
